Time;durP1;ratioP1;P1;durP2;ratioP2;P2;SDS_P1;SDS_P2;PMS_P1;PMS_P2;Temp;Humidity;BMP_temperature;BMP_pressure;BME280_temperature;BME280_humidity;BME280_pressure;Samples;Min_cycle;Max_cycle;Signal;HPM_P1;HPM_P2
2023/01/18 00:01:02;;;;;;;38.60;28.50;;;;;;;6.53;100.00;98603.92;108970;1259;71700;-70
2023/01/18 00:47:15;;;;;;;48.90;30.30;;;;;;;5.91;100.00;98603.88;102497;1295;601980;-76
2023/01/18 00:49:43;;;;;;;53.90;35.80;;;;;;;5.88;100.00;98604.07;104967;1267;62010;-73
2023/01/18 00:52:10;;;;;;;47.70;35.20;;;;;;;5.90;100.00;98604.73;104965;1263;59721;-77
2023/01/18 00:54:38;;;;;;;45.10;26.60;;;;;;;5.93;100.00;98602.05;104779;1263;73029;-74
2023/01/18 00:57:05;;;;;;;42.80;27.30;;;;;;;5.95;100.00;98597.80;104916;1263;68733;-71
2023/01/18 00:59:32;;;;;;;36.60;24.20;;;;;;;6.00;100.00;98593.13;104832;1263;73876;-74
2023/01/18 01:01:59;;;;;;;46.30;25.50;;;;;;;6.03;100.00;98586.97;104502;1260;643466;-75
2023/01/18 01:07:12;;;;;;;29.60;23.20;;;;;;;6.14;100.00;98587.48;105011;1265;73217;-77
2023/01/18 01:09:39;;;;;;;37.20;26.10;;;;;;;6.20;100.00;98592.94;104980;1265;67443;-73
2023/01/18 01:26:34;;;;;;;50.00;37.50;;;;;;;6.48;100.00;98582.11;104996;1260;74729;-76
2023/01/18 01:28:53;;;;;;;49.00;34.50;;;;;;;6.54;100.00;98580.20;105091;1260;64356;-75
2023/01/18 01:31:20;;;;;;;36.10;28.50;;;;;;;6.59;100.00;98579.09;105255;1262;60490;-73
2023/01/18 01:33:49;;;;;;;34.30;28.70;;;;;;;6.61;100.00;98579.44;105369;1257;73849;-75
2023/01/18 01:36:18;;;;;;;37.80;28.50;;;;;;;6.62;100.00;98572.17;105313;1259;71854;-74
2023/01/18 01:38:45;;;;;;;44.60;31.00;;;;;;;6.59;100.00;98571.86;105371;1257;72032;-79
2023/01/18 01:41:15;;;;;;;30.30;26.60;;;;;;;6.58;100.00;98570.30;105278;1257;64914;-75
2023/01/18 01:43:43;;;;;;;41.00;27.70;;;;;;;6.55;100.00;98579.80;105494;1257;59773;-75
2023/01/18 01:46:33;;;;;;;37.40;23.60;;;;;;;6.51;100.00;98581.35;105494;1262;75342;-75
2023/01/18 01:49:06;;;;;;;31.50;19.10;;;;;;;6.51;100.00;98577.23;105188;1263;68614;-73
2023/01/18 01:51:34;;;;;;;28.90;21.50;;;;;;;6.54;100.00;98572.18;105200;1263;71661;-77
2023/01/18 01:54:03;;;;;;;34.80;22.20;;;;;;;6.57;100.00;98566.08;105276;1257;62305;-72
2023/01/18 01:56:30;;;;;;;48.10;27.50;;;;;;;6.58;100.00;98559.36;105420;1263;60793;-76
2023/01/18 01:58:58;;;;;;;33.60;22.00;;;;;;;6.62;100.00;98558.77;105278;1257;75499;-76
2023/01/18 02:01:27;;;;;;;33.60;24.80;;;;;;;6.69;100.00;98555.95;105321;1262;70877;-78
2023/01/18 02:03:55;;;;;;;36.40;25.50;;;;;;;6.68;100.00;98547.75;105403;1257;73254;-77
2023/01/18 02:06:30;;;;;;;31.80;24.50;;;;;;;6.71;100.00;98546.45;105303;1262;62392;-75
2023/01/18 02:09:02;;;;;;;31.00;24.60;;;;;;;6.70;100.00;98543.13;105141;1262;60774;-76
2023/01/18 02:11:29;;;;;;;32.30;24.60;;;;;;;6.63;100.00;98540.55;105098;1263;73429;-77
2023/01/18 02:14:00;;;;;;;37.40;26.60;;;;;;;6.62;100.00;98542.95;105120;1257;70250;-73
2023/01/18 02:16:57;;;;;;;34.40;25.90;;;;;;;6.56;100.00;98546.30;105463;1262;73372;-73
2023/01/18 02:19:47;;;;;;;34.00;27.80;;;;;;;6.53;100.00;98537.35;105285;1260;63157;-75
2023/01/18 02:22:35;;;;;;;48.10;39.10;;;;;;;6.56;100.00;98537.87;105196;1257;59782;-74
2023/01/18 02:25:21;;;;;;;48.70;36.90;;;;;;;6.56;100.00;98539.95;105123;1259;73639;-74
2023/01/18 02:28:16;;;;;;;44.60;34.80;;;;;;;6.55;100.00;98532.73;105027;1257;70149;-74
2023/01/18 02:30:50;;;;;;;46.00;34.90;;;;;;;6.55;100.00;98535.46;105158;1262;75479;-71
2023/01/18 02:33:33;;;;;;;44.00;33.40;;;;;;;6.56;100.00;98541.66;105398;1263;60305;-72
2023/01/18 02:36:01;;;;;;;46.20;34.90;;;;;;;6.56;100.00;98537.33;105475;1263;60073;-74
2023/01/18 02:38:40;;;;;;;47.10;37.50;;;;;;;6.54;100.00;98534.42;105353;1257;71704;-74
2023/01/18 02:47:22;;;;;;;44.40;31.80;;;;;;;6.49;100.00;98537.10;105381;1257;63172;-72
2023/01/18 02:49:49;;;;;;;38.60;31.00;;;;;;;6.54;100.00;98527.92;105216;1262;60105;-72
2023/01/18 02:52:39;;;;;;;59.00;43.10;;;;;;;6.58;100.00;98523.19;105126;1257;72076;-75
2023/01/18 02:55:08;;;;;;;60.00;38.50;;;;;;;6.61;100.00;98522.59;105225;1257;69038;-73
2023/01/18 02:57:35;;;;;;;53.90;39.80;;;;;;;6.68;100.00;98517.89;105281;1266;72174;-75
2023/01/18 03:00:03;;;;;;;53.60;44.60;;;;;;;6.67;100.00;98522.68;105102;1262;59909;-73
2023/01/18 03:02:30;;;;;;;56.30;45.70;;;;;;;6.68;100.00;98519.34;105120;1262;60570;-75
2023/01/18 03:04:57;;;;;;;65.80;46.40;;;;;;;6.69;100.00;98523.73;105049;1260;73611;-72
2023/01/18 03:08:04;;;;;;;59.50;43.90;;;;;;;6.64;100.00;98520.05;105107;1257;69847;-74
2023/01/18 03:10:33;;;;;;;47.50;33.50;;;;;;;6.53;100.00;98513.90;105083;1263;75051;-78
2023/01/18 03:13:14;;;;;;;54.30;36.20;;;;;;;6.48;100.00;98504.98;105243;1262;63364;-75
2023/01/18 03:16:05;;;;;;;52.60;45.00;;;;;;;6.45;100.00;98506.63;105400;1262;61613;-76
2023/01/18 03:19:00;;;;;;;50.30;40.60;;;;;;;6.46;100.00;98498.19;105442;1257;74247;-73
2023/01/18 03:21:38;;;;;;;47.90;35.40;;;;;;;6.50;100.00;98479.27;105291;1257;69493;-76
2023/01/18 03:24:07;;;;;;;50.20;39.60;;;;;;;6.51;100.00;98483.02;105454;1257;71627;-75
2023/01/18 03:26:36;;;;;;;43.80;33.80;;;;;;;6.49;100.00;98492.39;105411;1258;64784;-73
2023/01/18 03:34:48;;;;;;;;;;;;;;;6.48;100.00;98497.77;105186;1257;68281;-75
2023/01/18 03:37:21;;;;;;;41.10;28.40;;;;;;;6.46;100.00;98501.98;105402;1257;72815;-73
2023/01/18 03:39:53;;;;;;;34.30;23.40;;;;;;;6.47;100.00;98505.30;105609;1260;63178;-75
2023/01/18 03:42:40;;;;;;;40.10;25.90;;;;;;;6.42;100.00;98507.59;105102;1257;62892;-75
2023/01/18 03:45:30;;;;;;;40.50;23.50;;;;;;;6.37;100.00;98510.34;105274;1257;73438;-76
2023/01/18 03:47:58;;;;;;;39.60;22.30;;;;;;;6.37;100.00;98510.59;105227;1258;69891;-73
2023/01/18 03:50:31;;;;;;;38.00;21.20;;;;;;;6.35;100.00;98512.16;105322;1260;71751;-74
2023/01/18 03:52:58;;;;;;;39.40;23.30;;;;;;;6.36;100.00;98512.02;105418;1257;61961;-74
2023/01/18 03:55:47;;;;;;;34.40;21.50;;;;;;;6.36;100.00;98513.10;105187;1257;60068;-72
2023/01/18 03:58:18;;;;;;;38.10;21.80;;;;;;;6.39;100.00;98517.60;105331;1262;75390;-73
2023/01/18 04:00:45;;;;;;;37.40;23.80;;;;;;;6.41;100.00;98510.42;105265;1260;69303;-75
2023/01/18 04:03:12;;;;;;;36.90;20.70;;;;;;;6.46;100.00;98512.65;105154;1262;73406;-73
2023/01/18 04:05:39;;;;;;;32.60;22.50;;;;;;;6.51;100.00;98509.50;105045;1257;66328;-74
2023/01/18 04:08:06;;;;;;;37.50;21.90;;;;;;;6.50;100.00;98509.60;105095;1257;60199;-73
2023/01/18 04:10:33;;;;;;;38.00;24.80;;;;;;;6.46;100.00;98506.78;105151;1258;72898;-74
2023/01/18 04:13:00;;;;;;;30.00;20.50;;;;;;;6.41;100.00;98508.19;105243;1263;70453;-78
2023/01/18 04:15:28;;;;;;;34.70;21.80;;;;;;;6.40;100.00;98508.48;105298;1262;72967;-74
2023/01/18 04:17:55;;;;;;;45.20;25.00;;;;;;;6.42;100.00;98511.94;105454;1257;64530;-76
2023/01/18 04:20:22;;;;;;;38.60;23.30;;;;;;;6.44;100.00;98506.65;105269;1257;60939;-76
2023/01/18 04:22:53;;;;;;;41.60;24.30;;;;;;;6.43;100.00;98511.92;105320;1257;74220;-76
2023/01/18 04:25:19;;;;;;;33.20;23.20;;;;;;;6.41;100.00;98506.73;105275;1262;68961;-79
2023/01/18 04:27:46;;;;;;;40.70;21.50;;;;;;;6.42;100.00;98505.95;105380;1262;73247;-74
2023/01/18 04:30:14;;;;;;;31.40;20.50;;;;;;;6.42;100.00;98513.48;105434;1261;62201;-77
2023/01/18 04:32:41;;;;;;;29.90;19.20;;;;;;;6.43;100.00;98511.35;105287;1262;61187;-77
2023/01/18 04:35:09;;;;;;;29.90;18.80;;;;;;;6.46;100.00;98507.87;105244;1256;74710;-78
2023/01/18 04:37:37;;;;;;;31.00;19.60;;;;;;;6.50;100.00;98513.55;105272;1264;70145;-76
2023/01/18 04:40:05;;;;;;;46.40;24.70;;;;;;;6.48;100.00;98512.68;105232;1263;72164;-77
2023/01/18 04:42:32;;;;;;;43.20;22.50;;;;;;;6.52;100.00;98511.44;105262;1260;62404;-76
2023/01/18 04:44:59;;;;;;;36.90;21.20;;;;;;;6.53;100.00;98513.52;105278;1258;61590;-75
2023/01/18 04:47:29;;;;;;;42.70;22.90;;;;;;;6.54;100.00;98512.75;105270;1257;74880;-76
2023/01/18 04:49:56;;;;;;;39.90;21.90;;;;;;;6.52;100.00;98515.11;105269;1262;70403;-76
2023/01/18 04:52:25;;;;;;;37.50;21.60;;;;;;;6.58;100.00;98521.96;105244;1262;73526;-77
2023/01/18 04:54:52;;;;;;;38.50;23.60;;;;;;;6.65;100.00;98518.88;105236;1258;61805;-76
2023/01/18 04:57:19;;;;;;;39.70;21.00;;;;;;;6.70;100.00;98515.19;105208;1262;60570;-76
2023/01/18 04:59:46;;;;;;;41.70;22.60;;;;;;;6.69;100.00;98506.42;105374;1257;75304;-75
2023/01/18 05:02:14;;;;;;;37.40;23.60;;;;;;;6.68;100.00;98506.98;105272;1257;68558;-76
2023/01/18 05:04:42;;;;;;;34.90;22.90;;;;;;;6.63;100.00;98505.36;106205;1257;73449;-79
2023/01/18 05:07:10;;;;;;;35.00;22.60;;;;;;;6.55;100.00;98509.27;107681;1260;63617;-78
2023/01/18 05:09:37;;;;;;;37.00;20.50;;;;;;;6.51;100.00;98510.85;107273;1262;60213;-71
2023/01/18 05:12:04;;;;;;;37.40;20.90;;;;;;;6.53;100.00;98507.33;105261;1263;75369;-75
2023/01/18 05:22:39;;;;;;;44.60;24.90;;;;;;;6.43;100.00;98488.96;102549;1296;600061;-76
2023/01/18 05:25:06;;;;;;;47.50;26.70;;;;;;;6.39;100.00;98487.95;104743;1264;59362;-77
2023/01/18 05:27:33;;;;;;;47.70;28.90;;;;;;;6.37;100.00;98481.55;104740;1270;62843;-75
2023/01/18 05:30:01;;;;;;;41.40;24.80;;;;;;;6.35;100.00;98476.98;104758;1264;72724;-76
2023/01/18 05:32:28;;;;;;;44.30;26.80;;;;;;;6.35;100.00;98479.27;104850;1269;69885;-75
2023/01/18 05:34:55;;;;;;;51.20;28.70;;;;;;;6.34;100.00;98473.44;104705;1266;74386;-78
2023/01/18 05:37:22;;;;;;;39.90;25.90;;;;;;;6.29;100.00;98483.54;104441;1264;634043;-79
2023/01/18 05:39:49;;;;;;;42.40;25.90;;;;;;;6.28;100.00;98489.63;104875;1270;59592;-76
2023/01/18 05:42:15;;;;;;;45.80;26.40;;;;;;;6.29;100.00;98486.42;104766;1270;72371;-76
2023/01/18 05:44:42;;;;;;;50.10;29.40;;;;;;;6.32;100.00;98482.23;104782;1270;67583;-75
2023/01/18 05:47:09;;;;;;;44.90;24.30;;;;;;;6.35;100.00;98478.52;104847;1270;72182;-75
2023/01/18 05:49:36;;;;;;;41.90;25.10;;;;;;;6.39;100.00;98478.46;104915;1265;61063;-75
2023/01/18 05:52:03;;;;;;;40.00;24.00;;;;;;;6.43;100.00;98473.48;104722;1264;61440;-76
2023/01/18 11:09:00;;;;;;;69.40;44.20;;;;;;;7.73;100.00;98252.88;102704;1299;2063026;-81
2023/01/18 11:14:29;;;;;;;52.70;33.70;;;;;;;7.79;100.00;98255.61;105488;1272;61692;-74
2023/01/18 11:17:16;;;;;;;49.20;37.00;;;;;;;7.85;100.00;98253.95;105631;1261;74770;-71
2023/01/18 11:19:46;;;;;;;49.20;33.50;;;;;;;7.91;100.00;98258.08;105428;1261;68351;-77
2023/01/18 11:22:14;;;;;;;52.00;32.10;;;;;;;7.95;100.00;98254.70;104809;1258;591032;-71
2023/01/18 11:24:41;;;;;;;44.60;29.20;;;;;;;7.98;100.00;98256.04;105423;1265;60509;-71
2023/01/18 11:27:12;;;;;;;47.70;30.90;;;;;;;8.04;100.00;98253.52;105415;1263;59792;-73
2023/01/18 11:29:41;;;;;;;37.20;24.30;;;;;;;8.08;100.00;98251.11;105592;1257;72663;-72
2023/01/18 11:32:23;;;;;;;35.90;21.20;;;;;;;8.15;100.00;98256.20;105626;1261;68679;-70
2023/01/18 11:34:51;;;;;;;39.70;21.60;;;;;;;8.21;100.00;98257.59;105640;1257;71839;-71
2023/01/18 11:37:33;;;;;;;34.30;19.50;;;;;;;8.26;100.00;98253.55;105759;1263;63578;-69
2023/01/18 11:40:25;;;;;;;28.00;17.40;;;;;;;8.35;100.00;98258.77;105570;1263;63145;-71
2023/01/18 11:42:57;;;;;;;28.00;19.90;;;;;;;8.42;100.00;98253.30;105526;1262;73751;-70
2023/01/18 11:46:03;;;;;;;25.60;17.50;;;;;;;8.47;100.00;98251.10;105699;1261;67851;-72
2023/01/18 11:49:15;;;;;;;29.90;18.20;;;;;;;8.51;100.00;98254.08;105747;1259;74867;-70
2023/01/18 11:52:09;;;;;;;24.70;16.80;;;;;;;8.55;100.00;98256.33;105698;1254;63146;-73
2023/01/18 11:54:48;;;;;;;31.10;19.50;;;;;;;8.58;100.00;98258.04;105632;1257;60565;-71
2023/01/18 11:57:16;;;;;;;27.20;17.20;;;;;;;8.59;100.00;98258.14;105408;1256;72608;-70
2023/01/18 11:59:44;;;;;;;35.20;17.80;;;;;;;8.61;100.00;98259.37;105991;1257;70347;-70
2023/01/18 12:02:30;;;;;;;39.60;18.70;;;;;;;8.63;100.00;98263.43;106013;1257;73177;-72
2023/01/18 12:05:01;;;;;;;23.30;16.00;;;;;;;8.66;100.00;98262.25;105687;1256;62244;-74
2023/01/18 12:08:05;;;;;;;25.80;17.30;;;;;;;8.69;100.00;98265.61;106009;1262;60218;-71
2023/01/18 12:10:48;;;;;;;32.20;15.70;;;;;;;8.72;100.00;98268.29;106092;1256;72955;-71
2023/01/18 12:13:21;;;;;;;31.60;15.60;;;;;;;8.74;100.00;98259.05;105728;1258;68454;-74
2023/01/18 12:16:07;;;;;;;;;;;;;;;8.76;100.00;98258.68;105623;1260;75238;-70
2023/01/18 12:18:56;;;;;;;22.70;15.40;;;;;;;8.77;100.00;98260.89;105716;1257;62369;-74
2023/01/18 12:21:30;;;;;;;23.30;13.60;;;;;;;8.79;100.00;98260.81;105674;1260;62930;-72
2023/01/18 12:24:06;;;;;;;38.30;16.70;;;;;;;8.81;100.00;98258.30;105605;1262;73407;-71
2023/01/18 12:26:36;;;;;;;30.50;14.00;;;;;;;8.82;100.00;98259.95;105501;1257;69901;-73
2023/01/18 12:29:10;;;;;;;31.20;14.20;;;;;;;8.84;100.00;98261.92;105484;1258;72354;-72
2023/01/18 12:31:51;;;;;;;25.40;14.50;;;;;;;8.85;100.00;98263.80;105779;1259;63110;-69
2023/01/18 12:34:22;;;;;;;25.90;13.00;;;;;;;8.88;100.00;98264.75;105334;1257;59639;-71
2023/01/18 12:37:12;;;;;;;24.00;12.60;;;;;;;8.92;100.00;98269.35;105242;1262;73490;-70
2023/01/18 12:40:03;;;;;;;24.00;12.20;;;;;;;9.00;100.00;98270.93;105204;1262;69204;-71
2023/01/18 12:42:54;;;;;;;27.60;14.70;;;;;;;9.07;100.00;98273.15;105530;1258;75263;-78
2023/01/18 12:45:21;;;;;;;20.00;12.60;;;;;;;9.08;100.00;98274.00;105557;1261;61113;-71
2023/01/18 12:48:04;;;;;;;25.60;12.50;;;;;;;9.09;100.00;98273.95;105530;1257;61192;-70
2023/01/18 12:50:34;;;;;;;28.60;12.10;;;;;;;9.14;100.00;98270.88;105503;1257;73283;-70
2023/01/18 12:53:25;;;;;;;28.00;12.60;;;;;;;9.19;100.00;98272.03;105661;1258;68204;-70
2023/01/18 12:55:52;;;;;;;23.90;14.00;;;;;;;9.22;100.00;98271.74;105601;1257;75021;-73
2023/01/18 12:58:22;;;;;;;22.10;11.40;;;;;;;9.23;100.00;98269.05;105480;1263;61719;-72
2023/01/18 13:00:55;;;;;;;22.00;11.20;;;;;;;9.26;100.00;98270.61;105534;1263;60972;-73
2023/01/18 13:03:27;;;;;;;16.80;10.90;;;;;;;9.30;100.00;98273.05;105458;1257;75638;-70
2023/01/18 13:05:58;;;;;;;27.60;13.20;;;;;;;9.35;100.00;98274.68;105226;1257;70167;-71
2023/01/18 13:08:46;;;;;;;24.60;13.50;;;;;;;9.38;100.00;98272.20;104903;1263;73941;-69
2023/01/18 13:11:29;;;;;;;22.60;13.60;;;;;;;9.42;100.00;98275.98;105113;1258;61036;-70
2023/01/18 13:14:17;;;;;;;16.60;14.30;;;;;;;9.45;100.00;98270.29;105284;1259;60749;-69
2023/01/18 13:16:58;;;;;;;22.80;12.80;;;;;;;9.50;100.00;98264.45;105416;1257;73516;-70
2023/01/18 13:19:28;;;;;;;25.40;12.70;;;;;;;9.58;100.00;98261.67;105160;1261;66947;-69
2023/01/18 13:22:02;;;;;;;25.70;9.90;;;;;;;9.67;100.00;98258.02;105293;1257;75063;-71
2023/01/18 13:24:35;;;;;;;21.20;10.70;;;;;;;9.77;100.00;98257.73;105257;1261;61909;-70
2023/01/18 13:27:12;;;;;;;;;;;;;;;9.87;100.00;98260.88;105403;1258;60031;-73
2023/01/18 13:29:39;;;;;;;21.60;11.60;;;;;;;9.93;100.00;98259.48;105774;1256;73448;-71
2023/01/18 13:32:31;;;;;;;22.70;10.30;;;;;;;9.98;100.00;98259.77;105701;1260;69565;-73
2023/01/18 13:35:04;;;;;;;20.10;10.50;;;;;;;10.04;100.00;98254.68;105762;1257;72958;-73
2023/01/18 13:37:56;;;;;;;14.20;10.70;;;;;;;10.08;100.00;98259.80;105458;1266;62745;-71
2023/01/18 13:40:37;;;;;;;23.40;10.20;;;;;;;10.11;100.00;98259.34;105366;1267;62029;-75
2023/01/18 13:43:04;;;;;;;26.50;12.00;;;;;;;10.13;100.00;98261.31;105375;1261;73607;-73
2023/01/18 13:45:31;;;;;;;20.10;11.30;;;;;;;10.16;100.00;98264.88;105470;1267;66513;-73
2023/01/18 13:48:04;;;;;;;20.70;10.70;;;;;;;10.18;100.00;98270.56;105346;1260;74509;-73
2023/01/18 13:50:31;;;;;;;33.10;12.30;;;;;;;10.21;100.00;98272.36;105394;1261;62570;-72
2023/01/18 19:53:21;;;;;;;35.20;16.90;;;;;;;9.55;100.00;98622.73;102587;1295;600378;-77
2023/01/18 19:55:48;;;;;;;43.60;14.90;;;;;;;9.53;100.00;98623.02;104893;1270;63204;-78
2023/01/18 19:58:26;;;;;;;26.90;12.70;;;;;;;9.55;100.00;98614.95;104981;1273;59814;-74
2023/01/18 20:00:53;;;;;;;31.60;13.30;;;;;;;9.58;100.00;98624.83;104863;1269;74029;-77
2023/01/18 20:03:20;;;;;;;32.40;13.30;;;;;;;9.61;100.00;98628.85;104769;1275;69877;-78
2023/01/18 20:05:47;;;;;;;28.60;12.40;;;;;;;9.63;100.00;98641.04;104197;1276;690326;-76
2023/01/18 20:08:14;;;;;;;23.20;10.30;;;;;;;9.66;100.00;98641.73;105053;1270;61195;-77
2023/01/18 20:10:41;;;;;;;24.60;11.20;;;;;;;9.69;100.00;98643.02;104961;1275;59389;-76
2023/01/18 20:13:08;;;;;;;29.80;11.70;;;;;;;9.71;100.00;98647.31;105410;1265;73169;-73
2023/01/18 20:15:38;;;;;;;30.30;11.40;;;;;;;9.73;100.00;98657.79;105327;1260;69191;-75
2023/01/18 20:18:06;;;;;;;27.30;11.20;;;;;;;9.75;100.00;98668.26;105017;1261;71954;-76
2023/01/18 20:20:33;;;;;;;28.80;11.30;;;;;;;9.77;100.00;98675.14;105471;1274;60669;-74
2023/01/18 20:23:01;;;;;;;29.10;13.30;;;;;;;9.77;100.00;98680.56;105383;1265;61510;-75
2023/01/18 20:25:30;;;;;;;33.20;12.00;;;;;;;9.79;100.00;98690.59;105395;1260;73960;-74
2023/01/18 20:27:57;;;;;;;24.40;9.90;;;;;;;9.81;100.00;98692.69;105509;1265;67683;-73
2023/01/18 20:30:26;;;;;;;35.30;11.30;;;;;;;9.83;100.00;98702.90;105372;1261;73313;-76
2023/01/18 20:32:52;;;;;;;31.40;11.20;;;;;;;9.87;100.00;98703.27;105440;1264;62423;-75
2023/01/18 20:35:21;;;;;;;30.30;11.20;;;;;;;9.88;100.00;98699.30;105475;1261;60410;-76
2023/01/18 20:37:48;;;;;;;33.00;11.10;;;;;;;9.89;100.00;98707.83;105297;1266;75146;-74
2023/01/18 20:40:15;;;;;;;33.60;10.30;;;;;;;9.90;100.00;98709.88;105595;1257;68073;-76
2023/01/18 20:42:42;;;;;;;26.10;10.70;;;;;;;9.86;100.00;98711.16;105607;1260;73590;-79
2023/01/18 20:45:09;;;;;;;22.20;10.20;;;;;;;9.86;100.00;98717.66;105682;1262;62677;-83
2023/01/18 20:47:36;;;;;;;32.30;12.40;;;;;;;9.89;100.00;98720.06;105810;1261;59679;-79
2023/01/18 20:50:03;;;;;;;31.80;11.40;;;;;;;9.89;100.00;98723.52;105762;1257;73585;-76
2023/01/18 20:52:31;;;;;;;27.30;10.50;;;;;;;9.88;100.00;98726.79;105698;1263;68770;-76
2023/01/18 20:54:58;;;;;;;31.10;13.20;;;;;;;9.86;100.00;98728.89;105759;1260;73135;-75
2023/01/18 20:57:29;;;;;;;22.80;10.70;;;;;;;9.83;100.00;98738.61;105688;1263;64732;-78
2023/01/18 20:59:56;;;;;;;23.70;11.00;;;;;;;9.78;100.00;98743.27;105596;1264;59622;-77
2023/01/18 21:02:23;;;;;;;25.00;11.60;;;;;;;9.73;100.00;98746.02;105801;1257;73441;-79
2023/01/18 21:04:50;;;;;;;25.20;9.90;;;;;;;9.70;100.00;98742.09;105565;1257;67762;-77
2023/01/18 21:07:17;;;;;;;19.30;12.00;;;;;;;9.69;100.00;98744.52;105243;1260;72551;-77
2023/01/18 21:09:44;;;;;;;26.80;10.90;;;;;;;9.72;100.00;98746.13;105660;1257;64465;-75
2023/01/18 21:12:11;;;;;;;18.00;9.70;;;;;;;9.75;100.00;98749.13;105529;1258;62958;-79
2023/01/18 21:14:38;;;;;;;23.10;10.60;;;;;;;9.77;100.00;98750.38;105337;1263;74147;-77
2023/01/18 21:17:05;;;;;;;27.20;10.90;;;;;;;9.72;100.00;98747.84;105744;1262;67665;-79
2023/01/18 21:19:31;;;;;;;23.00;9.60;;;;;;;9.66;100.00;98749.29;105542;1263;74343;-76
2023/01/18 21:21:58;;;;;;;31.00;9.50;;;;;;;9.60;100.00;98747.34;105675;1260;60400;-76
2023/01/18 21:24:25;;;;;;;26.20;9.10;;;;;;;9.56;100.00;98745.34;105273;1260;62879;-78
2023/01/18 21:26:52;;;;;;;33.40;12.20;;;;;;;9.54;100.00;98742.89;105685;1257;74843;-74
2023/01/18 21:29:19;;;;;;;29.40;10.60;;;;;;;9.50;100.00;98745.33;105437;1256;68104;-78
2023/01/18 21:31:46;;;;;;;23.80;10.70;;;;;;;9.45;100.00;98748.97;105512;1260;74748;-78
2023/01/18 21:34:13;;;;;;;27.70;11.10;;;;;;;9.45;100.00;98761.11;105691;1260;60079;-77
2023/01/18 21:36:40;;;;;;;25.00;10.00;;;;;;;9.37;100.00;98770.31;105807;1271;60626;-76
2023/01/18 21:39:06;;;;;;;33.50;10.00;;;;;;;9.29;100.00;98777.11;105752;1260;75854;-77
2023/01/18 21:47:13;;;;;;;29.00;9.40;;;;;;;9.07;100.00;98782.55;105421;1263;62960;-76
2023/01/18 21:55:31;;;;;;;21.50;8.30;;;;;;;8.83;100.00;98796.98;105850;1260;67794;-70
2023/01/18 22:00:44;;;;;;;24.50;8.90;;;;;;;8.67;100.00;98808.52;105715;1257;62516;-73
2023/01/18 22:03:14;;;;;;;24.30;8.70;;;;;;;8.59;100.00;98802.52;105344;1260;62623;-75
2023/01/18 22:05:40;;;;;;;21.80;8.30;;;;;;;8.54;100.00;98795.52;105363;1257;71629;-73
2023/01/18 22:08:08;;;;;;;34.90;9.00;;;;;;;8.50;100.00;98805.36;105059;1263;69059;-73
2023/01/18 22:10:35;;;;;;;23.50;8.60;;;;;;;8.47;100.00;98811.06;105162;1262;72768;-72
2023/01/18 22:13:02;;;;;;;26.20;10.30;;;;;;;8.44;100.00;98813.45;105202;1263;64001;-68
2023/01/18 22:15:29;;;;;;;29.30;10.00;;;;;;;8.40;100.00;98824.84;105254;1265;60318;-69
2023/01/18 22:17:56;;;;;;;22.50;9.10;;;;;;;8.34;100.00;98827.96;105334;1268;73217;-68
2023/01/18 22:20:23;;;;;;;25.40;8.60;;;;;;;8.27;100.00;98831.63;105388;1266;67418;-68
2023/01/18 22:22:50;;;;;;;19.70;8.80;;;;;;;8.20;100.00;98825.03;105132;1260;74855;-69
2023/01/18 22:25:18;;;;;;;25.80;8.70;;;;;;;8.17;100.00;98830.30;105178;1261;60384;-69
2023/01/18 22:27:45;;;;;;;20.20;8.10;;;;;;;8.17;100.00;98829.18;105358;1257;63010;-70
2023/01/18 22:30:12;;;;;;;19.10;9.50;;;;;;;8.21;100.00;98830.39;105184;1262;72068;-69
2023/01/18 22:32:39;;;;;;;30.50;11.30;;;;;;;8.16;100.00;98839.04;105364;1262;68603;-68
2023/01/18 22:35:07;;;;;;;24.90;9.90;;;;;;;8.10;100.00;98848.29;105605;1261;73114;-69
2023/01/18 22:37:34;;;;;;;18.00;9.00;;;;;;;8.04;100.00;98852.74;105489;1262;61729;-71
2023/01/18 22:40:02;;;;;;;18.20;8.30;;;;;;;7.99;100.00;98855.85;105794;1263;60737;-71
2023/01/18 22:42:30;;;;;;;19.60;7.80;;;;;;;7.93;100.00;98856.59;105640;1257;73466;-74
2023/01/18 22:44:57;;;;;;;21.50;8.60;;;;;;;7.90;100.00;98856.67;106415;1260;68565;-76
2023/01/18 22:47:24;;;;;;;30.60;10.80;;;;;;;7.92;100.00;98865.42;105892;1257;71651;-75
2023/01/18 22:49:50;;;;;;;18.20;8.30;;;;;;;7.93;100.00;98872.06;105768;1263;61369;-70
2023/01/18 22:52:17;;;;;;;32.50;11.00;;;;;;;7.93;100.00;98880.95;105628;1261;61561;-71
2023/01/18 22:54:44;;;;;;;39.40;12.80;;;;;;;7.89;100.00;98884.98;105490;1260;73192;-75
2023/01/18 22:57:11;;;;;;;23.70;9.30;;;;;;;7.89;100.00;98887.82;105526;1265;68956;-71
2023/01/18 22:59:38;;;;;;;31.10;10.20;;;;;;;7.89;100.00;98893.50;105897;1257;73075;-72
2023/01/18 23:02:05;;;;;;;22.00;8.20;;;;;;;7.85;100.00;98897.87;105849;1260;62862;-68
2023/01/18 23:04:33;;;;;;;30.00;10.00;;;;;;;7.82;100.00;98899.05;104864;1264;60705;-70
2023/01/18 23:07:00;;;;;;;24.20;9.50;;;;;;;7.80;100.00;98892.23;105309;1263;73696;-70
2023/01/18 23:09:28;;;;;;;22.60;10.00;;;;;;;7.79;100.00;98887.66;105114;1259;69028;-67
2023/01/18 23:11:55;;;;;;;20.20;11.20;;;;;;;7.72;100.00;98886.64;105253;1263;71287;-66
2023/01/18 23:19:55;;;;;;;23.60;9.10;;;;;;;7.58;100.00;98893.16;105035;1260;73841;-67
2023/01/18 23:22:21;;;;;;;25.80;10.40;;;;;;;7.57;100.00;98901.87;104992;1260;70835;-68
2023/01/18 23:24:48;;;;;;;22.20;9.30;;;;;;;7.56;100.00;98906.09;104995;1264;72081;-71
2023/01/18 23:27:15;;;;;;;22.10;9.00;;;;;;;7.58;100.00;98911.02;105077;1260;62195;-68
2023/01/18 23:29:42;;;;;;;20.80;9.90;;;;;;;7.61;100.00;98916.70;105129;1263;59974;-68
2023/01/18 23:32:09;;;;;;;26.20;9.80;;;;;;;7.63;100.00;98918.86;105207;1258;73153;-69
2023/01/18 23:34:36;;;;;;;25.10;10.30;;;;;;;7.64;100.00;98927.54;105253;1263;68508;-71
2023/01/18 23:37:03;;;;;;;19.50;9.40;;;;;;;7.56;100.00;98941.23;105248;1262;74511;-69
2023/01/18 23:56:03;;;;;;;24.00;10.50;;;;;;;6.82;100.00;99023.16;105249;1258;60229;-68
2023/01/18 23:58:30;;;;;;;24.20;10.70;;;;;;;6.81;100.00;99020.36;105082;1258;74033;-68
